Time,TemperatureF,DewpointF,PressureIn,WindDirection,WindDirectionDegrees,WindSpeedMPH,WindSpeedGustMPH,Humidity,HourlyPrecipIn,Conditions,Clouds,dailyrainin,SoftwareType,DateUTC
2013-03-28 00:03:00,37.9,32.1,30.24,ESE,112,0.0,0.0,79,0.00,,,-99.99,Meteorologica,2013-03-28 05:03:00,
2013-03-28 00:08:00,38.2,32.1,30.24,ESE,112,0.0,0.0,78,0.00,,,-99.99,Meteorologica,2013-03-28 05:08:00,
2013-03-28 00:13:00,38.3,32.2,30.24,ESE,112,0.0,0.0,78,0.00,,,-99.99,Meteorologica,2013-03-28 05:13:00,
2013-03-28 00:18:00,38.5,32.2,30.25,SSE,150,0.4,2.9,77,0.00,,,-99.99,Meteorologica,2013-03-28 05:18:00,
2013-03-28 00:23:00,38.5,32.1,30.24,ESE,121,0.0,0.0,77,0.00,,,-99.99,Meteorologica,2013-03-28 05:23:00,
2013-03-28 00:28:00,38.6,32.1,30.24,ESE,121,0.0,0.0,77,0.00,,,-99.99,Meteorologica,2013-03-28 05:28:00,
2013-03-28 00:33:00,38.7,32.2,30.24,ESE,121,0.0,0.0,77,0.00,,,-99.99,Meteorologica,2013-03-28 05:33:00,
2013-03-28 00:38:00,38.8,32.4,30.24,ESE,121,0.0,0.0,77,0.00,,,-99.99,Meteorologica,2013-03-28 05:38:00,
2013-03-28 00:43:00,39.0,32.4,30.24,East,91,0.0,0.0,76,0.00,,,-99.99,Meteorologica,2013-03-28 05:43:00,
2013-03-28 00:48:00,39.1,32.4,30.24,ESE,119,2.0,5.1,76,0.00,,,-99.99,Meteorologica,2013-03-28 05:48:00,
2013-03-28 00:53:00,39.1,32.4,30.25,East,87,0.0,0.0,76,0.00,,,-99.99,Meteorologica,2013-03-28 05:53:00,
2013-03-28 00:58:00,39.0,32.4,30.24,East,87,0.0,0.0,77,0.00,,,-99.99,Meteorologica,2013-03-28 05:58:00,
2013-03-28 01:03:00,38.7,32.3,30.25,ESE,119,1.3,5.5,77,0.00,,,-99.99,Meteorologica,2013-03-28 06:03:00,
2013-03-28 01:08:00,38.6,32.3,30.24,East,88,0.0,0.0,77,0.00,,,-99.99,Meteorologica,2013-03-28 06:08:00,
2013-03-28 01:13:00,38.5,32.1,30.24,SE,125,0.0,0.0,77,0.00,,,-99.99,Meteorologica,2013-03-28 06:13:00,
2013-03-28 01:18:00,38.4,32.2,30.25,SE,125,0.0,0.0,78,0.00,,,-99.99,Meteorologica,2013-03-28 06:18:00,
2013-03-28 01:23:00,38.2,32.2,30.25,SE,125,0.0,0.0,78,0.00,,,-99.99,Meteorologica,2013-03-28 06:23:00,
2013-03-28 01:28:00,38.0,32.2,30.24,SE,125,0.0,0.0,79,0.00,,,-99.99,Meteorologica,2013-03-28 06:28:00,
2013-03-28 01:33:00,37.9,32.1,30.24,SE,125,0.0,0.0,79,0.00,,,-99.99,Meteorologica,2013-03-28 06:33:00,
2013-03-28 01:38:00,37.7,32.1,30.24,SE,125,0.0,0.0,79,0.00,,,-99.99,Meteorologica,2013-03-28 06:38:00,
2013-03-28 01:43:00,37.4,32.1,30.25,SE,125,0.0,0.0,80,0.00,,,-99.99,Meteorologica,2013-03-28 06:43:00,
2013-03-28 01:48:00,37.2,31.9,30.25,SE,125,0.0,0.0,80,0.00,,,-99.99,Meteorologica,2013-03-28 06:48:00,
2013-03-28 01:53:00,36.9,31.9,30.25,SE,125,0.0,0.0,82,0.00,,,-99.99,Meteorologica,2013-03-28 06:53:00,
2013-03-28 01:58:00,36.8,31.8,30.25,SE,125,0.0,0.0,81,0.00,,,-99.99,Meteorologica,2013-03-28 06:58:00,
2013-03-28 02:03:00,36.3,31.6,30.25,SE,125,0.0,0.0,82,0.00,,,-99.99,Meteorologica,2013-03-28 07:03:00,
2013-03-28 02:08:00,36.0,31.4,30.25,SE,125,0.0,0.0,83,0.00,,,-99.99,Meteorologica,2013-03-28 07:08:00,
2013-03-28 02:13:00,35.7,31.4,30.25,SE,125,0.0,0.0,84,0.00,,,-99.99,Meteorologica,2013-03-28 07:13:00,
2013-03-28 02:18:00,35.5,31.2,30.24,SE,125,0.0,0.0,84,0.00,,,-99.99,Meteorologica,2013-03-28 07:18:00,
2013-03-28 02:23:00,35.1,31.2,30.24,SE,125,0.0,0.0,85,0.00,,,-99.99,Meteorologica,2013-03-28 07:23:00,
2013-03-28 02:28:00,34.4,30.7,30.24,SE,125,0.0,0.0,86,0.00,,,-99.99,Meteorologica,2013-03-28 07:28:00,
2013-03-28 02:33:00,33.7,30.3,30.24,SE,125,0.0,0.0,87,0.00,,,-99.99,Meteorologica,2013-03-28 07:33:00,
2013-03-28 02:38:00,33.2,29.8,30.24,SE,125,0.0,0.0,87,0.00,,,-99.99,Meteorologica,2013-03-28 07:38:00,
2013-03-28 02:43:00,32.8,29.6,30.24,SE,125,0.0,0.0,88,0.00,,,-99.99,Meteorologica,2013-03-28 07:43:00,
2013-03-28 02:48:00,32.5,29.5,30.24,SE,125,0.0,0.0,88,0.00,,,-99.99,Meteorologica,2013-03-28 07:48:00,
2013-03-28 02:53:00,32.2,29.7,30.24,SE,125,0.0,0.0,90,0.00,,,-99.99,Meteorologica,2013-03-28 07:53:00,
2013-03-28 02:58:00,32.0,29.4,30.24,SE,125,0.0,0.0,90,0.00,,,-99.99,Meteorologica,2013-03-28 07:58:00,
2013-03-28 03:03:00,31.8,29.2,30.23,SE,125,0.0,0.0,90,0.00,,,-99.99,Meteorologica,2013-03-28 08:03:00,
2013-03-28 03:08:00,31.6,29.0,30.23,SE,125,0.0,0.0,90,0.00,,,-99.99,Meteorologica,2013-03-28 08:08:00,
2013-03-28 03:13:00,31.5,29.0,30.23,SE,125,0.0,0.0,90,0.00,,,-99.99,Meteorologica,2013-03-28 08:13:00,
2013-03-28 03:18:00,31.4,28.8,30.23,SE,125,0.0,0.0,90,0.00,,,-99.99,Meteorologica,2013-03-28 08:18:00,
2013-03-28 03:23:00,31.4,28.9,30.23,SE,125,0.0,0.0,90,0.00,,,-99.99,Meteorologica,2013-03-28 08:23:00,
2013-03-28 03:28:00,31.3,28.8,30.23,SE,125,0.0,0.0,90,0.00,,,-99.99,Meteorologica,2013-03-28 08:28:00,
2013-03-28 03:33:00,31.3,28.9,30.23,SE,125,0.0,0.0,90,0.00,,,-99.99,Meteorologica,2013-03-28 08:33:00,
2013-03-28 03:39:00,31.1,28.7,30.23,SE,125,0.0,0.0,90,0.00,,,-99.99,Meteorologica,2013-03-28 08:39:00,
2013-03-28 03:44:00,31.1,28.7,30.23,SE,125,0.0,0.0,90,0.00,,,-99.99,Meteorologica,2013-03-28 08:44:00,
2013-03-28 03:49:00,31.0,28.6,30.23,SE,125,0.0,0.0,90,0.00,,,-99.99,Meteorologica,2013-03-28 08:49:00,
2013-03-28 03:54:00,30.9,28.5,30.23,SE,125,0.0,0.0,91,0.00,,,-99.99,Meteorologica,2013-03-28 08:54:00,
2013-03-28 03:59:00,30.6,28.2,30.23,SE,125,0.0,0.0,90,0.00,,,-99.99,Meteorologica,2013-03-28 08:59:00,
2013-03-28 04:04:00,30.2,27.8,30.23,SE,125,0.0,0.0,90,0.00,,,-99.99,Meteorologica,2013-03-28 09:04:00,
2013-03-28 04:10:00,29.9,27.6,30.23,SE,125,0.0,0.0,91,0.00,,,-99.99,Meteorologica,2013-03-28 09:10:00,
2013-03-28 04:15:00,29.8,27.6,30.23,SE,125,0.0,0.0,91,0.00,,,-99.99,Meteorologica,2013-03-28 09:15:00,
2013-03-28 04:20:00,29.5,27.2,30.23,SE,125,0.0,0.0,91,0.00,,,-99.99,Meteorologica,2013-03-28 09:20:00,
2013-03-28 04:25:00,29.5,27.3,30.23,SE,125,0.0,0.0,91,0.00,,,-99.99,Meteorologica,2013-03-28 09:25:00,
2013-03-28 04:30:00,29.5,27.3,30.23,SE,125,0.0,0.0,91,0.00,,,-99.99,Meteorologica,2013-03-28 09:30:00,
2013-03-28 04:35:00,29.5,27.3,30.23,SE,125,0.0,0.0,91,0.00,,,-99.99,Meteorologica,2013-03-28 09:35:00,
2013-03-28 04:40:00,29.5,27.4,30.23,SE,125,0.0,0.0,91,0.00,,,-99.99,Meteorologica,2013-03-28 09:40:00,
2013-03-28 04:45:00,29.4,27.2,30.23,SE,125,0.0,0.0,91,0.00,,,-99.99,Meteorologica,2013-03-28 09:45:00,
2013-03-28 04:50:00,29.4,27.2,30.24,SE,125,0.0,0.0,91,0.00,,,-99.99,Meteorologica,2013-03-28 09:50:00,
2013-03-28 04:55:00,29.3,27.1,30.23,SE,125,0.0,0.0,91,0.00,,,-99.99,Meteorologica,2013-03-28 09:55:00,
2013-03-28 05:00:00,29.0,26.8,30.23,SE,125,0.0,0.0,91,0.00,,,-99.99,Meteorologica,2013-03-28 10:00:00,
2013-03-28 05:05:00,28.6,26.5,30.23,SE,125,0.0,0.0,92,0.00,,,-99.99,Meteorologica,2013-03-28 10:05:00,
2013-03-28 05:10:00,28.4,26.4,30.24,SE,125,0.0,0.0,92,0.00,,,-99.99,Meteorologica,2013-03-28 10:10:00,
2013-03-28 05:16:00,28.3,26.4,30.24,SE,125,0.0,0.0,92,0.00,,,-99.99,Meteorologica,2013-03-28 10:16:00,
2013-03-28 05:21:00,28.0,26.1,30.24,SE,125,0.0,0.0,92,0.00,,,-99.99,Meteorologica,2013-03-28 10:21:00,
2013-03-28 05:26:00,28.0,26.1,30.23,SE,125,0.0,0.0,92,0.00,,,-99.99,Meteorologica,2013-03-28 10:26:00,
2013-03-28 05:31:00,27.9,26.0,30.23,SE,125,0.0,0.0,92,0.00,,,-99.99,Meteorologica,2013-03-28 10:31:00,
2013-03-28 05:36:00,28.1,26.2,30.23,SE,125,0.0,0.0,92,0.00,,,-99.99,Meteorologica,2013-03-28 10:36:00,
2013-03-28 05:41:00,27.9,26.0,30.23,SE,125,0.0,0.0,92,0.00,,,-99.99,Meteorologica,2013-03-28 10:41:00,
2013-03-28 05:46:00,27.8,25.9,30.23,SE,125,0.0,0.0,92,0.00,,,-99.99,Meteorologica,2013-03-28 10:46:00,
2013-03-28 05:51:00,27.7,25.9,30.23,SE,125,0.0,0.0,93,0.00,,,-99.99,Meteorologica,2013-03-28 10:51:00,
2013-03-28 05:56:00,27.5,25.7,30.23,SE,125,0.0,0.0,93,0.00,,,-99.99,Meteorologica,2013-03-28 10:56:00,
2013-03-28 06:01:00,27.4,25.6,30.23,SE,125,0.0,0.0,93,0.00,,,-99.99,Meteorologica,2013-03-28 11:01:00,
2013-03-28 06:06:00,27.3,25.5,30.23,SE,125,0.0,0.0,93,0.00,,,-99.99,Meteorologica,2013-03-28 11:06:00,
2013-03-28 06:11:00,27.2,25.5,30.23,SE,125,0.0,0.0,93,0.00,,,-99.99,Meteorologica,2013-03-28 11:11:00,
2013-03-28 06:16:00,27.0,25.3,30.23,SE,125,0.0,0.0,93,0.00,,,-99.99,Meteorologica,2013-03-28 11:16:00,
2013-03-28 06:21:00,26.7,25.0,30.23,SE,125,0.0,0.0,93,0.00,,,-99.99,Meteorologica,2013-03-28 11:21:00,
2013-03-28 06:26:00,26.5,24.7,30.23,SE,125,0.0,0.0,93,0.00,,,-99.99,Meteorologica,2013-03-28 11:26:00,
2013-03-28 06:31:00,26.4,24.7,30.23,SE,125,0.0,0.0,93,0.00,,,-99.99,Meteorologica,2013-03-28 11:31:00,
2013-03-28 06:36:00,26.5,24.9,30.23,SE,125,0.0,0.0,93,0.00,,,-99.99,Meteorologica,2013-03-28 11:36:00,
2013-03-28 06:41:00,26.5,24.8,30.23,SE,125,0.0,0.0,93,0.00,,,-99.99,Meteorologica,2013-03-28 11:41:00,
2013-03-28 06:46:00,26.4,24.8,30.23,SE,125,0.0,0.0,93,0.00,,,-99.99,Meteorologica,2013-03-28 11:46:00,
2013-03-28 06:51:00,26.6,25.1,30.24,SE,125,0.0,0.0,94,0.00,,,-99.99,Meteorologica,2013-03-28 11:51:00,
2013-03-28 06:56:00,26.7,25.2,30.24,SE,125,0.0,0.0,94,0.00,,,-99.99,Meteorologica,2013-03-28 11:56:00,
2013-03-28 07:01:00,26.6,25.1,30.24,SE,125,0.0,0.0,94,0.00,,,-99.99,Meteorologica,2013-03-28 12:01:00,
2013-03-28 07:06:00,26.6,25.0,30.24,SE,125,0.0,0.0,93,0.00,,,-99.99,Meteorologica,2013-03-28 12:06:00,
2013-03-28 07:11:00,26.6,25.0,30.24,SE,125,0.0,0.0,93,0.00,,,-99.99,Meteorologica,2013-03-28 12:11:00,
2013-03-28 07:16:00,26.5,24.9,30.24,SE,125,0.0,0.0,93,0.00,,,-99.99,Meteorologica,2013-03-28 12:16:00,
2013-03-28 07:21:00,26.4,24.8,30.24,SE,125,0.0,0.0,93,0.00,,,-99.99,Meteorologica,2013-03-28 12:21:00,
2013-03-28 07:26:00,26.3,24.7,30.24,SE,125,0.0,0.0,93,0.00,,,-99.99,Meteorologica,2013-03-28 12:26:00,
2013-03-28 07:31:00,26.4,24.8,30.24,SE,125,0.0,0.0,93,0.00,,,-99.99,Meteorologica,2013-03-28 12:31:00,
2013-03-28 07:36:00,26.3,24.7,30.24,SE,125,0.0,0.0,93,0.00,,,-99.99,Meteorologica,2013-03-28 12:36:00,
2013-03-28 07:41:00,26.1,24.5,30.24,SE,125,0.0,0.0,93,0.00,,,-99.99,Meteorologica,2013-03-28 12:41:00,
2013-03-28 07:46:00,26.1,24.5,30.24,SE,125,0.0,0.0,93,0.00,,,-99.99,Meteorologica,2013-03-28 12:46:00,
2013-03-28 07:51:00,26.3,24.8,30.24,SE,125,0.0,0.0,94,0.00,,,-99.99,Meteorologica,2013-03-28 12:51:00,
2013-03-28 07:56:00,26.5,25.1,30.24,SE,125,0.0,0.0,94,0.00,,,-99.99,Meteorologica,2013-03-28 12:56:00,
2013-03-28 08:01:00,26.8,25.4,30.24,SE,125,0.0,0.0,94,0.00,,,-99.99,Meteorologica,2013-03-28 13:01:00,
2013-03-28 08:06:00,27.0,25.5,30.24,SE,125,0.0,0.0,94,0.00,,,-99.99,Meteorologica,2013-03-28 13:06:00,
2013-03-28 08:11:00,27.4,25.9,30.24,SE,125,0.0,0.0,94,0.00,,,-99.99,Meteorologica,2013-03-28 13:11:00,
2013-03-28 08:16:00,27.7,26.2,30.24,SE,125,0.0,0.0,94,0.00,,,-99.99,Meteorologica,2013-03-28 13:16:00,
2013-03-28 08:21:00,28.3,26.8,30.24,SE,125,0.0,0.0,94,0.00,,,-99.99,Meteorologica,2013-03-28 13:21:00,
2013-03-28 08:26:00,28.7,27.1,30.24,SE,125,0.0,0.0,94,0.00,,,-99.99,Meteorologica,2013-03-28 13:26:00,
2013-03-28 08:31:00,29.2,27.6,30.24,SE,125,0.0,0.0,94,0.00,,,-99.99,Meteorologica,2013-03-28 13:31:00,
2013-03-28 08:36:00,29.6,27.9,30.24,SE,125,0.0,0.0,93,0.00,,,-99.99,Meteorologica,2013-03-28 13:36:00,
2013-03-28 08:41:00,30.2,28.4,30.24,SE,125,0.0,0.0,93,0.00,,,-99.99,Meteorologica,2013-03-28 13:41:00,
2013-03-28 08:46:00,30.6,28.7,30.24,SE,125,0.0,0.0,92,0.00,,,-99.99,Meteorologica,2013-03-28 13:46:00,
2013-03-28 08:51:00,31.1,29.1,30.24,SE,125,0.0,0.0,92,0.00,,,-99.99,Meteorologica,2013-03-28 13:51:00,
2013-03-28 08:56:00,31.8,29.9,30.24,SE,125,0.0,0.0,92,0.00,,,-99.99,Meteorologica,2013-03-28 13:56:00,
2013-03-28 09:01:00,32.5,30.5,30.24,SE,125,0.0,0.0,92,0.00,,,-99.99,Meteorologica,2013-03-28 14:01:00,
2013-03-28 09:06:00,33.2,31.2,30.24,SE,125,0.0,0.0,92,0.00,,,-99.99,Meteorologica,2013-03-28 14:06:00,
2013-03-28 09:11:00,33.9,31.8,30.24,SE,125,0.0,0.0,92,0.00,,,-99.99,Meteorologica,2013-03-28 14:11:00,
2013-03-28 09:16:00,34.9,32.8,30.23,SE,125,0.0,0.0,92,0.00,,,-99.99,Meteorologica,2013-03-28 14:16:00,
2013-03-28 09:21:00,35.9,33.5,30.24,SE,125,0.0,0.0,91,0.00,,,-99.99,Meteorologica,2013-03-28 14:21:00,
2013-03-28 09:26:00,36.9,34.3,30.24,SE,125,0.0,0.0,90,0.00,,,-99.99,Meteorologica,2013-03-28 14:26:00,
2013-03-28 09:31:00,38.0,34.9,30.24,SE,125,0.0,0.0,88,0.00,,,-99.99,Meteorologica,2013-03-28 14:31:00,
2013-03-28 09:36:00,38.9,35.6,30.24,SE,125,0.0,0.0,88,0.00,,,-99.99,Meteorologica,2013-03-28 14:36:00,
2013-03-28 09:41:00,40.5,36.3,30.23,East,97,2.9,5.5,84,0.00,,,-99.99,Meteorologica,2013-03-28 14:41:00,
2013-03-28 09:46:00,42.3,36.1,30.23,ENE,58,3.0,5.0,78,0.00,,,-99.99,Meteorologica,2013-03-28 14:46:00,
2013-03-28 09:51:00,43.6,37.1,30.24,NE,40,0.0,0.0,77,0.00,,,-99.99,Meteorologica,2013-03-28 14:51:00,
2013-03-28 09:56:00,44.5,37.4,30.24,SE,127,2.0,2.1,75,0.00,,,-99.99,Meteorologica,2013-03-28 14:56:00,
2013-03-28 10:01:00,44.9,38.0,30.24,East,93,2.2,5.8,76,0.00,,,-99.99,Meteorologica,2013-03-28 15:01:00,
2013-03-28 10:06:00,45.1,37.8,30.24,ESE,112,0.0,0.0,74,0.00,,,-99.99,Meteorologica,2013-03-28 15:06:00,
2013-03-28 10:11:00,45.3,38.1,30.23,NNE,22,0.0,0.0,75,0.00,,,-99.99,Meteorologica,2013-03-28 15:11:00,
2013-03-28 10:16:00,45.9,38.0,30.23,South,173,0.8,0.0,73,0.00,,,-99.99,Meteorologica,2013-03-28 15:16:00,
2013-03-28 10:21:00,46.4,38.4,30.24,East,97,0.0,0.0,73,0.00,,,-99.99,Meteorologica,2013-03-28 15:21:00,
2013-03-28 10:26:00,47.1,38.5,30.23,NE,42,0.0,0.0,71,0.00,,,-99.99,Meteorologica,2013-03-28 15:26:00,
2013-03-28 10:31:00,47.6,38.7,30.24,NE,42,0.0,0.0,70,0.00,,,-99.99,Meteorologica,2013-03-28 15:31:00,
2013-03-28 10:36:00,47.7,38.2,30.24,East,88,0.0,0.0,69,0.00,,,-99.99,Meteorologica,2013-03-28 15:36:00,
2013-03-28 10:41:00,47.9,38.2,30.24,South,182,1.3,3.1,68,0.00,,,-99.99,Meteorologica,2013-03-28 15:41:00,
2013-03-28 10:46:00,48.6,38.9,30.23,ESE,117,0.0,0.0,68,0.00,,,-99.99,Meteorologica,2013-03-28 15:46:00,
2013-03-28 10:51:00,49.2,38.7,30.23,East,93,0.0,0.0,66,0.00,,,-99.99,Meteorologica,2013-03-28 15:51:00,
2013-03-28 10:56:00,49.5,38.8,30.24,East,93,0.0,0.0,66,0.00,,,-99.99,Meteorologica,2013-03-28 15:56:00,
2013-03-28 11:01:00,50.0,39.3,30.24,East,93,0.0,0.0,66,0.00,,,-99.99,Meteorologica,2013-03-28 16:01:00,
2013-03-28 11:06:00,50.4,39.5,30.24,ESE,111,0.0,0.0,65,0.00,,,-99.99,Meteorologica,2013-03-28 16:06:00,
2013-03-28 11:11:00,51.2,38.9,30.24,East,97,0.0,0.0,62,0.00,,,-99.99,Meteorologica,2013-03-28 16:11:00,
2013-03-28 11:16:00,51.8,38.5,30.24,West,264,1.9,3.1,60,0.00,,,-99.99,Meteorologica,2013-03-28 16:16:00,
2013-03-28 11:21:00,51.9,39.2,30.24,SW,218,0.4,3.5,61,0.00,,,-99.99,Meteorologica,2013-03-28 16:21:00,
2013-03-28 11:26:00,52.2,39.0,30.24,South,175,0.0,0.0,59,0.00,,,-99.99,Meteorologica,2013-03-28 16:26:00,
2013-03-28 11:31:00,52.6,38.8,30.24,East,91,2.8,3.2,58,0.00,,,-99.99,Meteorologica,2013-03-28 16:31:00,
2013-03-28 11:36:00,53.1,39.0,30.24,East,97,2.5,4.4,57,0.00,,,-99.99,Meteorologica,2013-03-28 16:36:00,
2013-03-28 11:41:00,54.1,38.3,30.23,ENE,64,0.0,0.0,55,0.00,,,-99.99,Meteorologica,2013-03-28 16:41:00,
2013-03-28 11:46:00,54.4,39.4,30.23,SSE,151,0.0,0.0,56,0.00,,,-99.99,Meteorologica,2013-03-28 16:46:00,
2013-03-28 11:51:00,54.9,39.4,30.23,ESE,104,0.0,0.0,55,0.00,,,-99.99,Meteorologica,2013-03-28 16:51:00,
2013-03-28 11:56:00,55.4,38.8,30.23,East,88,4.1,6.6,53,0.00,,,-99.99,Meteorologica,2013-03-28 16:56:00,
2013-03-28 12:01:00,55.8,39.1,30.23,East,98,0.0,0.0,53,0.00,,,-99.99,Meteorologica,2013-03-28 17:01:00,
2013-03-28 12:06:00,56.1,38.8,30.23,NNE,12,1.1,0.0,52,0.00,,,-99.99,Meteorologica,2013-03-28 17:06:00,
2013-03-28 12:11:00,56.9,39.4,30.22,SE,125,2.7,4.5,51,0.00,,,-99.99,Meteorologica,2013-03-28 17:11:00,
2013-03-28 12:16:00,57.1,38.7,30.22,East,91,1.8,6.9,49,0.00,,,-99.99,Meteorologica,2013-03-28 17:16:00,
2013-03-28 12:21:00,57.3,37.6,30.22,ESE,118,5.9,6.3,46,0.00,,,-99.99,Meteorologica,2013-03-28 17:21:00,
2013-03-28 12:26:00,57.4,38.7,30.22,ESE,121,2.2,5.8,49,0.00,,,-99.99,Meteorologica,2013-03-28 17:26:00,
2013-03-28 12:31:00,57.5,38.3,30.22,East,86,0.5,0.0,48,0.00,,,-99.99,Meteorologica,2013-03-28 17:31:00,
2013-03-28 12:36:00,58.2,39.5,30.22,ENE,57,1.7,5.3,50,0.00,,,-99.99,Meteorologica,2013-03-28 17:36:00,
2013-03-28 12:41:00,59.2,39.3,30.22,SW,215,2.6,4.2,47,0.00,,,-99.99,Meteorologica,2013-03-28 17:41:00,
2013-03-28 12:46:00,59.2,37.9,30.22,ESE,119,1.2,5.2,45,0.00,,,-99.99,Meteorologica,2013-03-28 17:46:00,
2013-03-28 12:51:00,59.3,39.2,30.21,East,95,0.4,0.0,47,0.00,,,-99.99,Meteorologica,2013-03-28 17:51:00,
2013-03-28 12:56:00,59.6,39.0,30.22,East,101,2.6,5.0,46,0.00,,,-99.99,Meteorologica,2013-03-28 17:56:00,
2013-03-28 13:01:00,59.6,37.6,30.21,East,101,4.6,5.6,44,0.00,,,-99.99,Meteorologica,2013-03-28 18:01:00,
2013-03-28 13:06:00,59.8,37.6,30.21,East,89,1.9,5.4,43,0.00,,,-99.99,Meteorologica,2013-03-28 18:06:00,
2013-03-28 13:11:00,59.5,39.1,30.20,NE,52,0.1,0.0,46,0.00,,,-99.99,Meteorologica,2013-03-28 18:11:00,
2013-03-28 13:16:00,60.3,38.8,30.20,SE,128,3.9,5.1,45,0.00,,,-99.99,Meteorologica,2013-03-28 18:16:00,
2013-03-28 13:21:00,60.2,39.3,30.20,ESE,108,2.2,2.2,46,0.00,,,-99.99,Meteorologica,2013-03-28 18:21:00,
2013-03-28 13:26:00,60.4,39.0,30.20,ENE,62,2.6,0.0,45,0.00,,,-99.99,Meteorologica,2013-03-28 18:26:00,
2013-03-28 13:31:00,60.5,37.8,30.20,ENE,74,0.8,3.3,43,0.00,,,-99.99,Meteorologica,2013-03-28 18:31:00,
2013-03-28 13:36:00,60.5,38.9,30.20,SE,137,2.4,8.9,44,0.00,,,-99.99,Meteorologica,2013-03-28 18:36:00,
2013-03-28 13:41:00,60.6,38.5,30.20,South,170,4.7,5.8,43,0.00,,,-99.99,Meteorologica,2013-03-28 18:41:00,
2013-03-28 13:46:00,61.2,39.6,30.20,ENE,62,0.8,0.0,45,0.00,,,-99.99,Meteorologica,2013-03-28 18:46:00,
2013-03-28 13:51:00,61.5,39.4,30.19,East,98,0.0,0.0,44,0.00,,,-99.99,Meteorologica,2013-03-28 18:51:00,
2013-03-28 13:56:00,62.0,38.3,30.19,NE,50,0.0,0.0,41,0.00,,,-99.99,Meteorologica,2013-03-28 18:56:00,
2013-03-28 14:01:00,62.3,39.1,30.19,ESE,104,0.0,0.0,42,0.00,,,-99.99,Meteorologica,2013-03-28 19:01:00,
2013-03-28 14:06:00,62.6,38.9,30.19,NE,56,1.7,5.3,41,0.00,,,-99.99,Meteorologica,2013-03-28 19:06:00,
2013-03-28 14:11:00,62.4,38.3,30.19,East,83,0.0,0.0,41,0.00,,,-99.99,Meteorologica,2013-03-28 19:11:00,
2013-03-28 14:16:00,62.7,39.2,30.19,SSE,158,1.8,4.8,42,0.00,,,-99.99,Meteorologica,2013-03-28 19:16:00,
2013-03-28 14:21:00,63.4,37.5,30.19,SSE,149,6.1,9.1,38,0.00,,,-99.99,Meteorologica,2013-03-28 19:21:00,
2013-03-28 14:26:00,63.7,37.8,30.19,ESE,112,1.9,0.0,38,0.00,,,-99.99,Meteorologica,2013-03-28 19:26:00,
2013-03-28 14:31:00,63.8,37.1,30.18,SE,142,0.0,0.0,37,0.00,,,-99.99,Meteorologica,2013-03-28 19:31:00,
2013-03-28 14:36:00,64.3,37.7,30.18,ESE,123,3.7,10.0,36,0.00,,,-99.99,Meteorologica,2013-03-28 19:36:00,
2013-03-28 14:41:00,64.9,39.1,30.17,SSE,163,1.1,0.0,38,0.00,,,-99.99,Meteorologica,2013-03-28 19:41:00,
2013-03-28 14:46:00,65.2,39.2,30.18,SSE,154,3.6,5.6,38,0.00,,,-99.99,Meteorologica,2013-03-28 19:46:00,
2013-03-28 14:51:00,65.2,37.9,30.17,NE,46,1.5,5.4,36,0.00,,,-99.99,Meteorologica,2013-03-28 19:51:00,
2013-03-28 14:56:00,64.4,37.8,30.17,ENE,71,1.9,5.2,37,0.00,,,-99.99,Meteorologica,2013-03-28 19:56:00,
2013-03-28 15:01:00,64.3,38.4,30.16,East,101,1.0,3.4,38,0.00,,,-99.99,Meteorologica,2013-03-28 20:01:00,
2013-03-28 15:06:00,64.9,36.9,30.17,ESE,118,5.0,6.1,35,0.00,,,-99.99,Meteorologica,2013-03-28 20:06:00,
2013-03-28 15:11:00,64.7,36.6,30.17,NE,39,1.8,7.0,35,0.00,,,-99.99,Meteorologica,2013-03-28 20:11:00,
2013-03-28 15:16:00,64.0,35.9,30.16,ESE,107,1.1,0.0,35,0.00,,,-99.99,Meteorologica,2013-03-28 20:16:00,
2013-03-28 15:21:00,63.7,36.0,30.16,ENE,62,0.0,0.0,35,0.00,,,-99.99,Meteorologica,2013-03-28 20:21:00,
2013-03-28 15:26:00,63.4,36.7,30.16,ENE,77,0.0,0.0,37,0.00,,,-99.99,Meteorologica,2013-03-28 20:26:00,
2013-03-28 15:31:00,63.5,37.8,30.16,ENE,77,0.0,0.0,38,0.00,,,-99.99,Meteorologica,2013-03-28 20:31:00,
2013-03-28 15:36:00,63.7,37.5,30.16,ESE,108,2.8,0.0,38,0.00,,,-99.99,Meteorologica,2013-03-28 20:36:00,
2013-03-28 15:41:00,63.8,37.1,30.16,ESE,119,1.0,4.1,37,0.00,,,-99.99,Meteorologica,2013-03-28 20:41:00,
2013-03-28 15:46:00,63.2,35.9,30.15,ESE,119,0.0,0.0,36,0.00,,,-99.99,Meteorologica,2013-03-28 20:46:00,
2013-03-28 15:52:00,63.0,35.8,30.15,SE,124,3.3,7.6,36,0.00,,,-99.99,Meteorologica,2013-03-28 20:52:00,
2013-03-28 15:57:00,63.3,35.7,30.15,ESE,119,0.9,4.2,35,0.00,,,-99.99,Meteorologica,2013-03-28 20:57:00,
2013-03-28 16:02:00,63.5,34.9,30.14,ENE,77,0.4,4.5,34,0.00,,,-99.99,Meteorologica,2013-03-28 21:02:00,
2013-03-28 16:07:00,63.7,35.7,30.14,SE,146,2.8,7.6,35,0.00,,,-99.99,Meteorologica,2013-03-28 21:07:00,
2013-03-28 16:12:00,63.9,36.7,30.15,ESE,103,0.3,2.9,36,0.00,,,-99.99,Meteorologica,2013-03-28 21:12:00,
2013-03-28 16:17:00,64.6,37.5,30.15,South,189,0.3,5.2,36,0.00,,,-99.99,Meteorologica,2013-03-28 21:17:00,
2013-03-28 16:22:00,64.9,36.9,30.14,East,90,1.9,5.8,34,0.00,,,-99.99,Meteorologica,2013-03-28 21:22:00,
2013-03-28 16:27:00,64.4,35.2,30.14,ENE,67,2.8,8.3,34,0.00,,,-99.99,Meteorologica,2013-03-28 21:27:00,
2013-03-28 16:32:00,64.6,35.7,30.14,SE,127,0.0,0.0,34,0.00,,,-99.99,Meteorologica,2013-03-28 21:32:00,
2013-03-28 16:37:00,65.0,36.4,30.14,SSE,153,1.9,5.3,34,0.00,,,-99.99,Meteorologica,2013-03-28 21:37:00,
2013-03-28 16:42:00,65.2,36.0,30.14,South,186,4.4,6.8,34,0.00,,,-99.99,Meteorologica,2013-03-28 21:42:00,
2013-03-28 16:47:00,65.2,36.2,30.14,SE,132,0.5,3.2,34,0.00,,,-99.99,Meteorologica,2013-03-28 21:47:00,
2013-03-28 16:52:00,65.4,35.0,30.14,SSE,166,2.5,6.1,32,0.00,,,-99.99,Meteorologica,2013-03-28 21:52:00,
2013-03-28 16:57:00,65.3,34.6,30.14,ESE,119,0.0,0.0,32,0.00,,,-99.99,Meteorologica,2013-03-28 21:57:00,
2013-03-28 17:02:00,65.2,35.1,30.14,ESE,119,0.0,0.0,32,0.00,,,-99.99,Meteorologica,2013-03-28 22:02:00,
2013-03-28 17:07:00,64.9,35.0,30.14,ESE,118,4.6,7.1,33,0.00,,,-99.99,Meteorologica,2013-03-28 22:07:00,
2013-03-28 17:13:00,65.1,34.3,30.14,ESE,107,0.7,6.5,31,0.00,,,-99.99,Meteorologica,2013-03-28 22:13:00,
2013-03-28 17:18:00,65.2,35.1,30.14,SW,224,1.2,7.1,32,0.00,,,-99.99,Meteorologica,2013-03-28 22:18:00,
2013-03-28 17:23:00,65.3,33.2,30.14,SW,224,0.0,0.0,30,0.00,,,-99.99,Meteorologica,2013-03-28 22:23:00,
2013-03-28 17:28:00,65.1,34.9,30.14,ESE,104,0.0,7.1,32,0.00,,,-99.99,Meteorologica,2013-03-28 22:28:00,
2013-03-28 17:33:00,64.8,35.3,30.13,ENE,63,0.0,5.6,33,0.00,,,-99.99,Meteorologica,2013-03-28 22:33:00,
2013-03-28 17:38:00,64.7,35.2,30.13,ENE,71,2.7,6.4,33,0.00,,,-99.99,Meteorologica,2013-03-28 22:38:00,
2013-03-28 17:43:00,65.0,35.4,30.12,SE,140,2.2,5.5,33,0.00,,,-99.99,Meteorologica,2013-03-28 22:43:00,
2013-03-28 17:49:00,64.9,35.9,30.12,East,97,4.3,9.2,34,0.00,,,-99.99,Meteorologica,2013-03-28 22:49:00,
2013-03-28 17:54:00,64.8,35.8,30.13,SE,143,2.9,5.8,34,0.00,,,-99.99,Meteorologica,2013-03-28 22:54:00,
2013-03-28 17:59:00,65.0,35.4,30.13,SE,143,0.6,4.2,33,0.00,,,-99.99,Meteorologica,2013-03-28 22:59:00,
2013-03-28 18:04:00,65.0,35.3,30.13,ESE,108,0.5,3.5,33,0.00,,,-99.99,Meteorologica,2013-03-28 23:04:00,
2013-03-28 18:09:00,64.6,36.0,30.13,East,88,0.0,5.3,34,0.00,,,-99.99,Meteorologica,2013-03-28 23:09:00,
2013-03-28 18:14:00,64.8,36.8,30.13,ESE,118,0.2,6.4,35,0.00,,,-99.99,Meteorologica,2013-03-28 23:14:00,
2013-03-28 18:19:00,63.9,36.0,30.13,NE,42,0.5,6.1,35,0.00,,,-99.99,Meteorologica,2013-03-28 23:19:00,
2013-03-28 18:24:00,63.8,35.8,30.13,ESE,118,0.0,4.6,35,0.00,,,-99.99,Meteorologica,2013-03-28 23:24:00,
2013-03-28 18:29:00,63.8,36.1,30.13,ESE,117,1.4,5.7,35,0.00,,,-99.99,Meteorologica,2013-03-28 23:29:00,
2013-03-28 18:34:00,63.3,36.5,30.14,East,83,0.5,8.1,37,0.00,,,-99.99,Meteorologica,2013-03-28 23:34:00,
2013-03-28 18:39:00,62.9,37.0,30.13,East,84,5.4,8.6,38,0.00,,,-99.99,Meteorologica,2013-03-28 23:39:00,
2013-03-28 18:44:00,62.9,37.0,30.14,ESE,114,0.6,4.3,38,0.00,,,-99.99,Meteorologica,2013-03-28 23:44:00,
2013-03-28 18:49:00,62.7,37.6,30.14,East,101,3.4,6.5,39,0.00,,,-99.99,Meteorologica,2013-03-28 23:49:00,
2013-03-28 18:54:00,62.3,37.8,30.14,ENE,57,5.2,6.8,40,0.00,,,-99.99,Meteorologica,2013-03-28 23:54:00,
2013-03-28 18:59:00,62.2,38.2,30.14,NE,35,1.4,4.4,41,0.00,,,-99.99,Meteorologica,2013-03-28 23:59:00,
2013-03-28 19:04:00,62.1,38.7,30.14,ENE,68,1.7,4.8,41,0.00,,,-99.99,Meteorologica,2013-03-29 00:04:00,
2013-03-28 19:09:00,61.7,38.5,30.14,ENE,62,3.6,7.8,42,0.00,,,-99.99,Meteorologica,2013-03-29 00:09:00,
2013-03-28 19:14:00,61.7,39.2,30.14,NE,40,0.0,3.5,43,0.00,,,-99.99,Meteorologica,2013-03-29 00:14:00,
2013-03-28 19:19:00,61.5,39.5,30.15,NE,40,0.0,0.0,43,0.00,,,-99.99,Meteorologica,2013-03-29 00:19:00,
2013-03-28 19:24:00,61.4,39.3,30.14,NE,40,0.0,0.0,44,0.00,,,-99.99,Meteorologica,2013-03-29 00:24:00,
2013-03-28 19:29:00,61.1,39.0,30.15,ESE,118,0.8,5.4,44,0.00,,,-99.99,Meteorologica,2013-03-29 00:29:00,
2013-03-28 19:34:00,60.9,39.3,30.15,East,84,0.0,0.0,45,0.00,,,-99.99,Meteorologica,2013-03-29 00:34:00,
2013-03-28 19:39:00,60.6,39.1,30.15,East,84,0.0,0.0,45,0.00,,,-99.99,Meteorologica,2013-03-29 00:39:00,
2013-03-28 19:44:00,60.5,39.8,30.16,ESE,112,0.3,4.7,46,0.00,,,-99.99,Meteorologica,2013-03-29 00:44:00,
2013-03-28 19:49:00,60.3,39.5,30.15,NE,38,0.0,4.8,46,0.00,,,-99.99,Meteorologica,2013-03-29 00:49:00,
2013-03-28 19:54:00,60.1,39.6,30.15,NE,56,0.0,6.5,46,0.00,,,-99.99,Meteorologica,2013-03-29 00:54:00,
2013-03-28 19:59:00,59.9,39.6,30.16,NE,42,1.7,4.5,47,0.00,,,-99.99,Meteorologica,2013-03-29 00:59:00,
2013-03-28 20:04:00,59.7,39.9,30.16,NE,52,0.1,4.8,47,0.00,,,-99.99,Meteorologica,2013-03-29 01:04:00,
2013-03-28 20:09:00,59.5,40.0,30.16,NE,47,2.2,5.8,48,0.00,,,-99.99,Meteorologica,2013-03-29 01:09:00,
2013-03-28 20:14:00,59.2,40.4,30.16,ENE,63,0.4,3.3,49,0.00,,,-99.99,Meteorologica,2013-03-29 01:14:00,
2013-03-28 20:19:00,59.0,40.5,30.16,ENE,57,0.0,0.0,50,0.00,,,-99.99,Meteorologica,2013-03-29 01:19:00,
2013-03-28 20:24:00,58.9,40.0,30.17,ENE,63,1.2,5.3,49,0.00,,,-99.99,Meteorologica,2013-03-29 01:24:00,
2013-03-28 20:29:00,58.8,40.1,30.16,NE,45,0.0,0.0,49,0.00,,,-99.99,Meteorologica,2013-03-29 01:29:00,
2013-03-28 20:35:00,58.7,40.3,30.16,NE,45,0.0,0.0,50,0.00,,,-99.99,Meteorologica,2013-03-29 01:35:00,
2013-03-28 20:40:00,58.4,40.4,30.16,ENE,62,0.0,5.2,50,0.00,,,-99.99,Meteorologica,2013-03-29 01:40:00,
2013-03-28 20:45:00,58.1,40.0,30.17,NE,55,0.0,4.5,50,0.00,,,-99.99,Meteorologica,2013-03-29 01:45:00,
2013-03-28 20:50:00,58.0,40.3,30.17,NE,46,0.1,6.2,51,0.00,,,-99.99,Meteorologica,2013-03-29 01:50:00,
2013-03-28 20:55:00,57.8,40.5,30.17,ENE,57,0.0,5.6,52,0.00,,,-99.99,Meteorologica,2013-03-29 01:55:00,
2013-03-28 21:00:00,57.5,40.3,30.17,ENE,63,0.0,4.6,52,0.00,,,-99.99,Meteorologica,2013-03-29 02:00:00,
2013-03-28 21:05:00,57.3,40.3,30.18,ENE,63,0.0,0.0,52,0.00,,,-99.99,Meteorologica,2013-03-29 02:05:00,
2013-03-28 21:10:00,57.2,57.2,30.18,ENE,63,0.0,0.0,100,0.00,,,-99.99,Meteorologica,2013-03-29 02:10:00,
2013-03-28 21:15:00,57.1,40.4,30.18,ENE,63,0.0,0.0,53,0.00,,,-99.99,Meteorologica,2013-03-29 02:15:00,
2013-03-28 21:20:00,56.8,40.3,30.18,ENE,63,0.0,0.0,53,0.00,,,-99.99,Meteorologica,2013-03-29 02:20:00,
2013-03-28 21:25:00,56.7,56.7,30.19,ENE,63,0.0,0.0,100,0.00,,,-99.99,Meteorologica,2013-03-29 02:25:00,
2013-03-28 21:30:00,56.5,56.5,30.19,ENE,63,0.0,0.0,100,0.00,,,-99.99,Meteorologica,2013-03-29 02:30:00,
2013-03-28 21:35:00,56.3,56.3,30.18,East,91,1.2,3.5,100,0.00,,,-99.99,Meteorologica,2013-03-29 02:35:00,
2013-03-28 21:40:00,56.0,40.4,30.19,East,83,0.0,5.0,55,0.00,,,-99.99,Meteorologica,2013-03-29 02:40:00,
2013-03-28 21:45:00,55.8,40.3,30.19,East,83,0.0,0.0,55,0.00,,,-99.99,Meteorologica,2013-03-29 02:45:00,
2013-03-28 21:50:00,55.5,40.0,30.19,East,83,0.0,0.0,55,0.00,,,-99.99,Meteorologica,2013-03-29 02:50:00,
2013-03-28 21:55:00,55.3,40.1,30.20,East,83,0.0,0.0,56,0.00,,,-99.99,Meteorologica,2013-03-29 02:55:00,
2013-03-28 22:00:00,55.2,40.0,30.20,ESE,112,0.0,4.5,56,0.00,,,-99.99,Meteorologica,2013-03-29 03:00:00,
2013-03-28 22:05:00,55.1,39.8,30.21,East,88,0.0,5.6,56,0.00,,,-99.99,Meteorologica,2013-03-29 03:05:00,
2013-03-28 22:10:00,55.1,39.8,30.21,East,88,0.0,0.0,56,0.00,,,-99.99,Meteorologica,2013-03-29 03:10:00,
2013-03-28 22:15:00,54.9,39.7,30.21,East,88,0.0,0.0,56,0.00,,,-99.99,Meteorologica,2013-03-29 03:15:00,
2013-03-28 22:20:00,55.0,40.0,30.20,East,88,0.0,0.0,56,0.00,,,-99.99,Meteorologica,2013-03-29 03:20:00,
2013-03-28 22:25:00,54.8,40.0,30.20,ESE,105,1.7,6.0,57,0.00,,,-99.99,Meteorologica,2013-03-29 03:25:00,
2013-03-28 22:30:00,54.7,40.0,30.21,SE,125,0.0,5.9,57,0.00,,,-99.99,Meteorologica,2013-03-29 03:30:00,
2013-03-28 22:35:00,54.6,39.9,30.22,ENE,64,0.0,2.7,57,0.00,,,-99.99,Meteorologica,2013-03-29 03:35:00,
2013-03-28 22:40:00,54.7,40.3,30.21,ENE,71,0.0,5.6,58,0.00,,,-99.99,Meteorologica,2013-03-29 03:40:00,
2013-03-28 22:45:00,54.6,40.2,30.21,ESE,105,1.4,5.5,58,0.00,,,-99.99,Meteorologica,2013-03-29 03:45:00,
2013-03-28 22:50:00,54.7,40.2,30.20,ENE,74,0.0,5.2,57,0.00,,,-99.99,Meteorologica,2013-03-29 03:50:00,
2013-03-28 22:55:00,54.7,40.3,30.21,ESE,103,0.0,4.8,57,0.00,,,-99.99,Meteorologica,2013-03-29 03:55:00,
2013-03-28 23:00:00,54.8,40.5,30.22,ENE,60,0.8,4.2,58,0.00,,,-99.99,Meteorologica,2013-03-29 04:00:00,
2013-03-28 23:01:00,54.7,40.4,30.21,ENE,60,0.0,0.0,58,0.00,,,-99.99,Meteorologica,2013-03-29 04:01:00,
2013-03-28 23:02:00,54.7,40.4,30.21,ENE,60,0.0,0.0,58,0.00,,,-99.99,Meteorologica,2013-03-29 04:02:00,
2013-03-28 23:07:00,54.5,40.3,30.21,ENE,70,0.0,3.1,58,0.00,,,-99.99,Meteorologica,2013-03-29 04:07:00,
2013-03-28 23:08:00,54.4,40.4,30.21,ENE,70,0.0,3.1,58,0.00,,,-99.99,Meteorologica,2013-03-29 04:08:00,
2013-03-28 23:11:00,54.3,40.3,30.21,ENE,70,0.0,0.0,59,0.00,,,-99.99,Meteorologica,2013-03-29 04:11:00,
2013-03-28 23:16:00,54.1,40.4,30.21,ENE,70,0.0,0.0,59,0.00,,,-99.99,Meteorologica,2013-03-29 04:16:00,
2013-03-28 23:21:00,53.8,40.2,30.21,NNE,25,0.0,0.0,59,0.00,,,-99.99,Meteorologica,2013-03-29 04:21:00,
2013-03-28 23:26:00,53.5,40.4,30.21,NNE,25,0.0,0.0,60,0.00,,,-99.99,Meteorologica,2013-03-29 04:26:00,
2013-03-28 23:31:00,53.1,40.3,30.20,NE,36,0.0,0.0,61,0.00,,,-99.99,Meteorologica,2013-03-29 04:31:00,
2013-03-28 23:36:00,53.0,40.1,30.20,NE,36,0.0,0.0,61,0.00,,,-99.99,Meteorologica,2013-03-29 04:36:00,
2013-03-28 23:41:00,53.1,40.3,30.20,NNE,26,0.0,0.0,61,0.00,,,-99.99,Meteorologica,2013-03-29 04:41:00,
2013-03-28 23:46:00,53.1,40.2,30.20,NE,36,0.0,0.0,61,0.00,,,-99.99,Meteorologica,2013-03-29 04:46:00,
2013-03-28 23:51:00,53.2,40.3,30.20,NE,42,1.7,0.0,61,0.00,,,-99.99,Meteorologica,2013-03-29 04:51:00,
2013-03-28 23:56:00,53.2,40.5,30.20,ESE,108,0.0,0.0,61,0.00,,,-99.99,Meteorologica,2013-03-29 04:56:00,